createdAt,value
2022-10-08T00:01:31.176Z,99.90
2022-10-08T00:03:59.400Z,99.90
2022-10-08T00:06:29.805Z,99.90
2022-10-08T00:09:02.183Z,99.90
2022-10-08T00:11:32.778Z,99.90
2022-10-08T00:14:01.923Z,99.90
2022-10-08T00:16:32.862Z,99.90
2022-10-08T00:19:03.719Z,99.90
2022-10-08T00:21:35.461Z,99.90
2022-10-08T00:24:07.519Z,99.90
2022-10-08T00:26:42.544Z,99.90
2022-10-08T00:29:14.885Z,99.90
2022-10-08T00:31:46.428Z,99.90
2022-10-08T00:34:18.195Z,99.90
2022-10-08T00:36:47.333Z,99.90
2022-10-08T00:39:19.786Z,99.90
2022-10-08T00:41:51.562Z,99.90
2022-10-08T00:44:55.895Z,99.90
2022-10-08T00:47:40.553Z,99.90
2022-10-08T00:50:14.546Z,99.90
2022-10-08T00:52:46.636Z,99.90
2022-10-08T00:55:19.979Z,99.90
2022-10-08T00:57:48.453Z,99.90
2022-10-08T01:00:21.584Z,99.90
2022-10-08T01:02:49.968Z,99.90
2022-10-08T01:05:25.948Z,99.90
2022-10-08T01:08:02.786Z,99.90
2022-10-08T01:10:41.939Z,99.90
2022-10-08T01:13:22.391Z,99.90
2022-10-08T01:16:02.372Z,99.90
2022-10-08T01:18:40.418Z,99.90
2022-10-08T01:21:13.147Z,99.90
2022-10-08T01:24:09.479Z,99.90
2022-10-08T01:26:57.087Z,99.90
2022-10-08T01:29:31.006Z,99.90
2022-10-08T01:32:04.458Z,99.90
2022-10-08T01:34:38.414Z,99.90
2022-10-08T01:37:11.818Z,99.90
2022-10-08T01:39:41.931Z,99.90
2022-10-08T01:42:11.632Z,99.90
2022-10-08T01:44:46.312Z,99.90
2022-10-08T01:47:19.342Z,99.90
2022-10-08T01:49:52.570Z,99.90
2022-10-08T01:52:25.302Z,99.90
2022-10-08T01:54:59.347Z,99.90
2022-10-08T01:57:29.525Z,99.90
2022-10-08T02:00:06.069Z,99.90
2022-10-08T02:02:34.140Z,99.90
2022-10-08T02:05:02.208Z,99.90
2022-10-08T02:07:34.180Z,99.90
2022-10-08T02:10:09.445Z,99.90
2022-10-08T02:12:39.255Z,99.90
2022-10-08T02:15:13.437Z,99.90
2022-10-08T02:17:54.230Z,99.90
2022-10-08T02:20:29.278Z,99.90
2022-10-08T02:23:03.782Z,99.90
2022-10-08T02:25:36.958Z,99.90
2022-10-08T02:28:14.010Z,99.90
2022-10-08T02:30:50.218Z,99.90
2022-10-08T02:33:26.206Z,99.90
2022-10-08T02:35:58.593Z,99.90
2022-10-08T02:38:33.247Z,99.90
2022-10-08T02:41:04.683Z,99.90
2022-10-08T02:43:36.017Z,99.90
2022-10-08T02:46:10.304Z,99.90
2022-10-08T02:48:42.351Z,99.90
2022-10-08T02:51:15.755Z,99.90
2022-10-08T02:53:45.570Z,99.90
2022-10-08T02:56:19.883Z,99.90
2022-10-08T02:58:48.872Z,99.90
2022-10-08T03:01:26.555Z,99.90
2022-10-08T03:04:00.037Z,99.90
2022-10-08T03:06:29.809Z,99.90
2022-10-08T03:09:00.049Z,99.90
2022-10-08T03:11:29.319Z,99.90
2022-10-08T03:13:59.749Z,99.90
2022-10-08T03:16:37.347Z,99.90
2022-10-08T03:19:05.922Z,99.90
2022-10-08T03:21:34.431Z,99.90
2022-10-08T03:24:02.381Z,99.90
2022-10-08T03:26:30.342Z,99.90
2022-10-08T03:28:58.324Z,99.90
2022-10-08T03:31:27.976Z,99.90
2022-10-08T03:33:57.539Z,99.90
2022-10-08T03:36:26.777Z,99.90
2022-10-08T03:38:54.885Z,99.90
2022-10-08T03:41:23.178Z,99.90
2022-10-08T03:43:51.146Z,99.90
2022-10-08T03:46:19.185Z,99.90
2022-10-08T03:48:50.463Z,99.90
2022-10-08T03:51:20.245Z,99.90
2022-10-08T03:53:48.346Z,99.90
2022-10-08T03:56:19.156Z,99.90
2022-10-08T03:58:47.873Z,99.90
2022-10-08T04:01:18.469Z,99.90
2022-10-08T04:03:48.069Z,99.90
2022-10-08T04:06:16.433Z,99.90
2022-10-08T04:08:44.939Z,99.90
2022-10-08T04:11:15.544Z,99.90
2022-10-08T04:13:43.864Z,99.90
2022-10-08T04:16:14.637Z,99.90
2022-10-08T04:18:42.723Z,99.90
2022-10-08T04:21:14.699Z,99.90
2022-10-08T04:23:44.251Z,99.90
2022-10-08T04:26:14.545Z,99.90
2022-10-08T04:28:45.159Z,99.90
2022-10-08T04:31:17.227Z,99.90
2022-10-08T04:33:46.414Z,99.90
2022-10-08T04:36:18.495Z,99.90
2022-10-08T04:38:47.193Z,99.90
2022-10-08T04:41:17.466Z,99.90
2022-10-08T04:43:46.775Z,99.90
2022-10-08T04:46:17.515Z,99.90
2022-10-08T04:48:48.266Z,99.90
2022-10-08T04:51:18.387Z,99.90
2022-10-08T04:53:47.015Z,99.90
2022-10-08T04:56:18.224Z,99.90
2022-10-08T04:58:46.358Z,99.90
2022-10-08T05:01:17.009Z,99.90
2022-10-08T05:03:48.541Z,99.90
2022-10-08T05:06:20.512Z,99.90
2022-10-08T05:08:49.773Z,99.90
2022-10-08T05:11:19.571Z,99.90
2022-10-08T05:13:51.412Z,99.90
2022-10-08T05:16:20.761Z,99.90
2022-10-08T05:18:50.562Z,99.90
2022-10-08T05:21:23.760Z,99.90
2022-10-08T05:23:56.631Z,99.90
2022-10-08T05:26:46.512Z,99.90
2022-10-08T05:29:15.898Z,99.90
2022-10-08T05:31:43.828Z,99.90
2022-10-08T05:34:14.475Z,99.90
2022-10-08T05:36:43.938Z,99.90
2022-10-08T05:39:12.640Z,99.90
2022-10-08T05:41:41.365Z,99.90
2022-10-08T05:44:11.742Z,99.90
2022-10-08T05:46:40.975Z,99.90
2022-10-08T05:49:18.243Z,99.90
2022-10-08T05:51:51.301Z,99.90
2022-10-08T05:54:23.225Z,99.90
2022-10-08T05:56:51.501Z,99.90
2022-10-08T05:59:22.164Z,99.90
2022-10-08T06:01:53.137Z,99.90
2022-10-08T06:04:21.961Z,99.90
2022-10-08T06:06:51.688Z,99.90
2022-10-08T06:09:22.261Z,99.90
2022-10-08T06:11:51.222Z,99.90
2022-10-08T06:14:20.256Z,99.90
2022-10-08T06:16:48.638Z,99.90
2022-10-08T06:19:17.772Z,99.90
2022-10-08T06:21:45.857Z,99.90
2022-10-08T06:24:15.807Z,99.90
2022-10-08T06:26:45.237Z,99.90
2022-10-08T06:29:18.598Z,99.90
2022-10-08T06:31:47.873Z,99.90
2022-10-08T06:34:16.032Z,99.90
2022-10-08T06:36:43.984Z,99.90
2022-10-08T06:39:15.558Z,99.90
2022-10-08T06:41:45.715Z,99.90
2022-10-08T06:44:15.814Z,99.90
2022-10-08T06:46:44.474Z,99.90
2022-10-08T06:49:13.384Z,99.90
2022-10-08T06:51:42.234Z,99.90
2022-10-08T06:54:10.241Z,99.90
2022-10-08T06:56:40.136Z,99.90
2022-10-08T06:59:08.799Z,99.90
2022-10-08T07:01:38.438Z,99.90
2022-10-08T07:04:07.504Z,99.90
2022-10-08T07:06:35.932Z,99.90
2022-10-08T07:09:06.729Z,99.90
2022-10-08T07:11:35.878Z,99.90
2022-10-08T07:14:05.435Z,99.90
2022-10-08T07:16:33.514Z,99.90
2022-10-08T07:19:01.749Z,99.90
2022-10-08T07:21:31.197Z,99.90
2022-10-08T07:24:01.792Z,99.90
2022-10-08T07:26:34.301Z,99.90
2022-10-08T07:29:06.891Z,99.90
2022-10-08T07:31:37.689Z,99.90
2022-10-08T07:34:08.199Z,99.90
2022-10-08T07:36:36.639Z,99.90
2022-10-08T07:39:08.274Z,99.90
2022-10-08T07:41:36.888Z,99.90
2022-10-08T07:44:07.532Z,99.90
2022-10-08T07:46:37.890Z,99.90
2022-10-08T07:49:06.581Z,99.90
2022-10-08T07:51:36.500Z,99.90
2022-10-08T07:54:07.120Z,99.90
2022-10-08T07:56:36.338Z,99.90
2022-10-08T07:59:16.589Z,99.90
2022-10-08T08:01:46.792Z,99.90
2022-10-08T08:04:17.662Z,99.90
2022-10-08T08:06:49.593Z,99.90
2022-10-08T08:09:18.582Z,99.90
2022-10-08T08:11:47.234Z,99.90
2022-10-08T08:14:17.169Z,99.90
2022-10-08T08:16:45.308Z,99.90
2022-10-08T08:19:13.333Z,99.90
2022-10-08T08:21:41.467Z,99.90
2022-10-08T08:24:13.034Z,99.90
2022-10-08T08:26:47.820Z,99.90
2022-10-08T08:29:19.442Z,99.90
2022-10-08T08:31:50.926Z,99.90
2022-10-08T08:34:21.124Z,99.90
2022-10-08T08:36:51.201Z,99.90
2022-10-08T08:39:21.765Z,99.90
2022-10-08T08:42:03.416Z,99.90
2022-10-08T08:44:36.248Z,99.90
2022-10-08T08:47:12.182Z,99.90
2022-10-08T08:49:43.989Z,99.90
2022-10-08T08:52:20.399Z,99.90
2022-10-08T08:54:49.940Z,99.90
2022-10-08T08:57:33.996Z,99.90
2022-10-08T09:00:08.602Z,99.90
2022-10-08T09:02:41.624Z,99.90
2022-10-08T09:05:14.029Z,99.90
2022-10-08T09:07:46.812Z,99.90
2022-10-08T09:10:21.264Z,99.90
2022-10-08T09:12:52.379Z,99.90
2022-10-08T09:15:26.715Z,99.90
2022-10-08T09:17:55.317Z,99.90
2022-10-08T09:20:27.006Z,99.90
2022-10-08T09:22:57.798Z,99.90
2022-10-08T09:25:31.288Z,99.20
2022-10-08T09:28:04.095Z,98.80
2022-10-08T09:30:38.153Z,98.40
2022-10-08T09:33:25.442Z,97.40
2022-10-08T09:35:54.489Z,97.40
2022-10-08T09:38:25.275Z,97.60
2022-10-08T09:41:06.619Z,97.60
2022-10-08T09:43:35.552Z,98.90
2022-10-08T09:46:11.711Z,99.90
2022-10-08T09:48:41.601Z,98.80
2022-10-08T09:51:16.670Z,98.80
2022-10-08T09:53:48.472Z,98.90
2022-10-08T09:56:27.355Z,98.80
2022-10-08T09:58:59.834Z,99.10
2022-10-08T10:01:31.728Z,99.90
2022-10-08T10:04:03.134Z,99.90
2022-10-08T10:06:34.794Z,99.90
2022-10-08T10:09:12.813Z,99.90
2022-10-08T10:11:47.898Z,99.90
2022-10-08T10:14:25.683Z,99.90
2022-10-08T10:17:02.063Z,99.90
2022-10-08T10:19:44.074Z,99.90
2022-10-08T10:22:16.107Z,99.90
2022-10-08T10:24:54.625Z,99.90
2022-10-08T10:27:30.964Z,99.90
2022-10-08T10:30:13.814Z,99.90
2022-10-08T10:32:49.969Z,99.90
2022-10-08T10:35:26.208Z,99.90
2022-10-08T10:38:01.183Z,99.90
2022-10-08T10:40:38.864Z,99.90
2022-10-08T10:43:32.250Z,99.90
2022-10-08T10:46:14.089Z,99.70
2022-10-08T10:48:43.592Z,98.80
2022-10-08T10:51:30.806Z,98.00
2022-10-08T10:54:13.947Z,97.90
2022-10-08T10:56:50.414Z,96.00
2022-10-08T10:59:45.130Z,94.80
2022-10-08T11:02:24.313Z,93.80
2022-10-08T11:05:06.184Z,92.70
2022-10-08T11:07:52.043Z,92.10
2022-10-08T11:10:35.416Z,91.70
2022-10-08T11:13:19.744Z,91.30
2022-10-08T11:16:00.352Z,92.00
2022-10-08T11:18:45.312Z,91.80
2022-10-08T11:21:33.655Z,90.90
2022-10-08T11:24:30.755Z,90.80
2022-10-08T11:27:11.843Z,90.40
2022-10-08T11:29:52.095Z,88.60
2022-10-08T11:32:21.531Z,90.40
2022-10-08T11:34:54.336Z,87.10
2022-10-08T11:37:28.334Z,87.80
2022-10-08T11:40:05.035Z,86.40
2022-10-08T11:42:46.185Z,84.10
2022-10-08T11:45:30.981Z,86.90
2022-10-08T11:48:09.104Z,87.10
2022-10-08T11:50:42.368Z,88.80
2022-10-08T11:53:21.323Z,90.40
2022-10-08T11:55:53.276Z,90.80
2022-10-08T11:58:26.553Z,90.40
2022-10-08T12:01:02.748Z,91.20
2022-10-08T12:03:35.063Z,91.20
2022-10-08T12:06:17.980Z,91.10
2022-10-08T12:08:54.397Z,91.80
2022-10-08T12:11:49.914Z,92.20
2022-10-08T12:14:46.484Z,92.60
2022-10-08T12:17:15.159Z,92.80
2022-10-08T12:20:04.558Z,91.80
2022-10-08T12:23:00.937Z,91.60
2022-10-08T12:25:40.917Z,91.10
2022-10-08T12:28:50.780Z,91.80
2022-10-08T12:31:32.260Z,90.70
2022-10-08T12:34:03.427Z,90.20
2022-10-08T12:36:42.853Z,90.10
2022-10-08T12:39:21.174Z,87.30
2022-10-08T12:42:02.424Z,88.70
2022-10-08T12:44:45.780Z,89.50
2022-10-08T12:47:26.153Z,88.20
2022-10-08T12:50:00.906Z,90.50
2022-10-08T12:52:35.709Z,90.50
2022-10-08T12:55:06.664Z,88.90
2022-10-08T12:57:39.187Z,89.30
2022-10-08T13:00:10.405Z,89.50
2022-10-08T13:02:41.736Z,90.30
2022-10-08T13:05:26.161Z,90.30
2022-10-08T13:07:54.865Z,87.80
2022-10-08T13:10:28.681Z,88.50
2022-10-08T13:13:06.542Z,88.50
2022-10-08T13:15:35.784Z,86.70
2022-10-08T13:18:15.384Z,86.70
2022-10-08T13:20:58.337Z,88.50
2022-10-08T13:23:32.263Z,89.10
2022-10-08T13:26:00.730Z,88.10
2022-10-08T13:28:58.677Z,88.60
2022-10-08T13:31:24.953Z,90.30
2022-10-08T13:33:53.172Z,87.90
2022-10-08T13:36:24.095Z,87.60
2022-10-08T13:38:52.270Z,86.00
2022-10-08T13:41:24.168Z,87.10
2022-10-08T13:43:53.604Z,87.00
2022-10-08T13:46:21.706Z,86.90
2022-10-08T13:48:49.736Z,87.60
2022-10-08T13:51:17.878Z,87.40
2022-10-08T13:53:45.974Z,87.30
2022-10-08T13:56:14.155Z,87.90
2022-10-08T13:58:42.110Z,88.40
2022-10-08T14:01:11.558Z,89.00
2022-10-08T14:03:39.564Z,90.10
2022-10-08T14:06:08.347Z,89.40
2022-10-08T14:08:37.040Z,90.20
2022-10-08T14:11:06.757Z,90.70
2022-10-08T14:13:34.712Z,90.50
2022-10-08T15:50:29.307Z,99.90
2022-10-08T15:52:57.445Z,99.90
2022-10-08T15:55:25.448Z,99.90
2022-10-08T15:57:53.454Z,99.90
2022-10-08T16:00:22.491Z,99.90
2022-10-08T16:02:50.910Z,99.90
2022-10-08T16:05:19.442Z,99.90
2022-10-08T16:07:48.801Z,99.90
2022-10-08T16:10:16.886Z,99.90
2022-10-08T16:12:45.160Z,99.90
2022-10-08T16:15:13.381Z,99.90
2022-10-08T16:17:41.395Z,99.90
2022-10-08T16:20:10.559Z,99.90
2022-10-08T16:22:38.513Z,99.90
2022-10-08T16:25:08.923Z,99.90
2022-10-08T16:27:36.970Z,99.90
2022-10-08T16:30:05.969Z,99.90
2022-10-08T16:32:33.989Z,99.90
2022-10-08T16:35:01.941Z,99.90
2022-10-08T16:37:29.907Z,99.90
2022-10-08T16:40:03.700Z,99.90
2022-10-08T16:42:33.017Z,99.90
2022-10-08T16:45:00.971Z,99.90
2022-10-08T16:47:28.981Z,99.90
2022-10-08T16:49:56.923Z,99.90
2022-10-08T16:52:24.953Z,99.90
2022-10-08T16:54:54.718Z,99.90
2022-10-08T16:57:22.868Z,99.90
2022-10-08T16:59:52.162Z,99.90
2022-10-08T17:02:24.961Z,99.90
2022-10-08T17:04:54.037Z,99.90
2022-10-08T17:07:21.998Z,99.90
2022-10-08T17:09:49.968Z,99.90
2022-10-08T17:12:21.834Z,99.90
2022-10-08T17:17:19.729Z,99.90
2022-10-08T17:19:47.694Z,99.90
2022-10-08T17:22:16.789Z,99.90
2022-10-08T17:24:44.864Z,99.90
2022-10-08T17:27:13.361Z,99.90
2022-10-08T17:29:41.303Z,99.90
2022-10-08T17:32:11.503Z,99.90
2022-10-08T17:34:39.517Z,99.90
2022-10-08T17:37:07.685Z,99.90
2022-10-08T17:39:35.627Z,99.90
2022-10-08T17:42:06.973Z,99.90
2022-10-08T17:44:35.499Z,99.90
2022-10-08T17:47:03.531Z,99.90
2022-10-08T17:49:33.989Z,99.90
2022-10-08T17:52:02.154Z,99.90
2022-10-08T17:54:30.158Z,99.90
2022-10-08T17:57:00.469Z,99.90
2022-10-08T17:59:28.459Z,99.90
2022-10-08T18:01:56.559Z,99.90
2022-10-08T18:04:24.685Z,99.90
2022-10-08T18:06:58.676Z,99.90
2022-10-08T18:09:31.392Z,99.90
2022-10-08T18:11:59.405Z,99.90
2022-10-08T18:14:27.336Z,99.90
2022-10-08T18:16:55.460Z,99.90
2022-10-08T18:19:23.693Z,99.90
2022-10-08T18:21:53.091Z,99.90
2022-10-08T18:24:21.155Z,99.90
2022-10-08T18:26:49.154Z,99.90
2022-10-08T18:29:17.188Z,99.90
2022-10-08T18:31:48.561Z,99.90
2022-10-08T18:34:19.363Z,99.90
2022-10-08T18:36:48.840Z,99.90
2022-10-08T18:39:23.647Z,99.90
2022-10-08T18:41:56.235Z,99.90
2022-10-08T18:44:26.949Z,99.90
2022-10-08T18:46:55.039Z,99.90
2022-10-08T18:49:29.397Z,99.90
2022-10-08T18:52:01.980Z,99.90
2022-10-08T18:54:31.541Z,99.90
2022-10-08T18:57:00.304Z,99.90
2022-10-08T18:59:28.328Z,99.90
2022-10-08T19:01:59.553Z,99.90
2022-10-08T19:04:27.911Z,99.90
2022-10-08T19:06:55.878Z,99.90
2022-10-08T19:09:23.929Z,99.90
2022-10-08T19:11:55.670Z,99.90
2022-10-08T19:14:24.820Z,99.90
2022-10-08T19:16:53.398Z,99.90
2022-10-08T19:19:23.593Z,99.90
2022-10-08T19:21:52.931Z,99.90
2022-10-08T19:24:23.089Z,99.90
2022-10-08T19:26:53.347Z,99.90
2022-10-08T19:29:23.723Z,99.90
2022-10-08T19:31:52.164Z,99.90
2022-10-08T20:02:58.752Z,99.90
2022-10-08T20:05:27.029Z,99.90
2022-10-08T20:07:55.055Z,99.90
2022-10-08T20:10:23.187Z,99.90
2022-10-08T20:12:51.316Z,99.90
2022-10-08T20:15:19.425Z,99.90
2022-10-08T20:17:50.826Z,99.90
2022-10-08T20:20:32.942Z,99.90
2022-10-08T20:23:04.592Z,99.90
2022-10-08T20:25:32.710Z,99.90
2022-10-08T20:28:00.776Z,99.90
2022-10-08T20:30:31.436Z,99.90
2022-10-08T20:32:59.403Z,99.90
2022-10-08T20:35:31.087Z,99.90
2022-10-08T20:37:59.158Z,99.90
2022-10-08T20:40:27.190Z,99.90
2022-10-08T20:42:55.134Z,99.90
2022-10-08T20:45:23.066Z,99.90
2022-10-08T20:47:51.071Z,99.90
2022-10-08T20:50:19.020Z,99.90
2022-10-08T20:52:50.536Z,99.90
2022-10-08T20:55:19.548Z,99.90
2022-10-08T20:57:47.832Z,99.90
2022-10-08T21:00:16.715Z,99.90
2022-10-08T21:02:44.723Z,99.90
2022-10-08T21:05:13.087Z,99.90
2022-10-08T21:07:41.109Z,99.90
2022-10-08T21:10:11.477Z,99.90
2022-10-08T21:12:39.473Z,99.90
2022-10-08T21:15:09.600Z,99.90
2022-10-08T21:17:37.976Z,99.90
2022-10-08T21:20:06.992Z,99.90
2022-10-08T21:22:34.978Z,99.90
2022-10-08T21:25:03.242Z,99.90
2022-10-08T21:27:32.550Z,99.90
2022-10-08T21:30:00.464Z,99.90
2022-10-08T21:32:28.416Z,99.90
2022-10-08T21:34:56.426Z,99.90
2022-10-08T21:37:24.527Z,99.90
2022-10-08T21:39:52.583Z,99.90
2022-10-08T21:42:20.543Z,99.90
2022-10-08T21:44:49.907Z,99.90
2022-10-08T21:47:17.867Z,99.90
2022-10-08T21:49:45.900Z,99.90
2022-10-08T21:52:13.915Z,99.90
2022-10-08T21:54:41.884Z,99.90
2022-10-08T21:57:16.200Z,99.90
2022-10-08T21:59:50.629Z,99.90
2022-10-08T22:02:23.019Z,99.90
2022-10-08T22:04:51.197Z,99.90
2022-10-08T22:07:19.194Z,99.90
2022-10-08T22:09:47.129Z,99.90
2022-10-08T22:12:15.093Z,99.90
2022-10-08T22:14:43.019Z,99.90
2022-10-08T22:17:10.996Z,99.90
2022-10-08T22:19:40.558Z,99.90
2022-10-08T22:22:08.552Z,99.90
2022-10-08T22:24:37.895Z,99.90
2022-10-08T22:27:06.161Z,99.90
2022-10-08T22:29:35.450Z,99.90
2022-10-08T22:32:04.110Z,99.90
2022-10-08T22:34:32.127Z,99.90
2022-10-08T22:37:01.399Z,99.90
2022-10-08T22:39:29.542Z,99.90
2022-10-08T22:41:57.586Z,99.90
2022-10-08T22:44:25.627Z,99.90
2022-10-08T22:46:56.211Z,99.90
2022-10-08T22:49:24.228Z,99.90
2022-10-08T22:51:52.171Z,99.90
2022-10-08T22:54:21.537Z,99.90
2022-10-08T22:56:49.488Z,99.90
2022-10-08T22:59:17.711Z,99.90
2022-10-08T23:01:45.707Z,99.90
2022-10-08T23:04:16.746Z,99.90
2022-10-08T23:06:44.769Z,99.90
2022-10-08T23:09:13.514Z,99.90
2022-10-08T23:11:42.915Z,99.90
2022-10-08T23:14:11.359Z,99.90
2022-10-08T23:16:39.370Z,99.90
2022-10-08T23:19:09.825Z,99.90
2022-10-08T23:21:38.618Z,99.90
2022-10-08T23:24:07.396Z,99.90
2022-10-08T23:26:36.736Z,99.90
2022-10-08T23:29:06.497Z,99.90
2022-10-08T23:31:36.728Z,99.90
2022-10-08T23:34:06.404Z,99.90
2022-10-08T23:36:37.634Z,99.90
2022-10-08T23:39:06.539Z,99.90
2022-10-08T23:41:34.676Z,99.90
2022-10-08T23:44:02.811Z,99.90
2022-10-08T23:46:33.305Z,99.90
2022-10-08T23:49:01.732Z,99.90
2022-10-08T23:51:31.984Z,99.90
2022-10-08T23:54:01.321Z,99.90
2022-10-08T23:56:30.708Z,99.90
2022-10-08T23:58:58.994Z,99.90
